Time;durP1;ratioP1;P1;durP2;ratioP2;P2;SDS_P1;SDS_P2;PMS_P1;PMS_P2;Temp;Humidity;BMP_temperature;BMP_pressure;BME280_temperature;BME280_humidity;BME280_pressure;Samples;Min_cycle;Max_cycle;Signal;HPM_P1;HPM_P2
2023/02/06 00:00:43;;;;;;;;;11.00;6.00;;;;;4.48;100.00;104002.53;4914829;28;49664;-68
2023/02/06 00:03:08;;;;;;;;;5.50;5.50;;;;;4.47;100.00;104006.81;4914704;28;50022;-67
2023/02/06 00:05:34;;;;;;;;;9.25;6.50;;;;;4.49;100.00;104025.16;4914809;28;49694;-67
2023/02/06 00:07:59;;;;;;;;;6.25;4.00;;;;;4.16;100.00;103961.31;4914322;28;49662;-67
2023/02/06 00:10:25;;;;;;;;;9.75;7.50;;;;;4.40;100.00;104000.84;4913985;28;49768;-67
2023/02/06 00:12:50;;;;;;;;;8.75;8.00;;;;;3.54;100.00;103846.91;4913903;28;49532;-67
2023/02/06 00:15:16;;;;;;;;;7.00;5.25;;;;;4.51;100.00;104026.22;4913042;28;49990;-67
2023/02/06 00:17:42;;;;;;;;;7.25;7.00;;;;;3.61;100.00;103870.13;4914471;28;49933;-67
2023/02/06 00:20:08;;;;;;;;;5.75;5.00;;;;;4.43;100.00;104027.16;4914461;28;49790;-67
2023/02/06 00:22:35;;;;;;;;;11.00;5.25;;;;;4.57;100.00;104045.03;4914395;28;49772;-67
2023/02/06 00:25:04;;;;;;;;;6.75;6.75;;;;;4.03;100.00;103946.16;4914453;28;49816;-71
2023/02/06 00:27:29;;;;;;;;;12.25;8.75;;;;;4.41;100.00;104023.50;4914121;28;50345;-68
2023/02/06 00:29:55;;;;;;;;;8.00;4.25;;;;;4.30;100.00;104005.16;4913844;28;49910;-70
2023/02/06 00:32:20;;;;;;;;;9.25;7.50;;;;;4.09;100.00;103971.84;4914790;28;49675;-68
2023/02/06 00:34:46;;;;;;;;;8.00;6.75;;;;;4.29;100.00;104013.72;4914659;28;49936;-68
2023/02/06 00:37:11;;;;;;;;;6.00;6.00;;;;;3.88;100.00;103943.75;4914001;28;50915;-67
2023/02/06 00:39:37;;;;;;;;;8.50;8.50;;;;;4.07;100.00;103985.47;4914349;28;50128;-68
2023/02/06 00:42:03;;;;;;;;;7.50;5.25;;;;;3.82;100.00;103943.16;4914229;28;49607;-67
2023/02/06 00:44:28;;;;;;;;;9.25;5.50;;;;;4.36;100.00;104043.88;4912851;28;49657;-68
2023/02/06 00:46:55;;;;;;;;;11.25;7.75;;;;;4.47;100.00;104078.75;4914025;28;49857;-68
2023/02/06 00:49:20;;;;;;;;;8.00;4.25;;;;;4.46;100.00;104064.81;4914283;28;49743;-67
2023/02/06 00:51:47;;;;;;;;;9.75;7.50;;;;;4.46;100.00;104074.31;4914194;28;49900;-68
2023/02/06 00:54:12;;;;;;;;;11.25;8.25;;;;;4.36;100.00;104053.34;4914389;28;49831;-67
2023/02/06 00:56:38;;;;;;;;;10.25;6.00;;;;;4.25;100.00;104032.41;4913332;28;50735;-67
2023/02/06 00:59:03;;;;;;;;;8.00;4.50;;;;;4.06;100.00;104000.16;4913261;28;49633;-67
2023/02/06 01:01:29;;;;;;;;;5.25;4.75;;;;;4.22;100.00;104036.38;4913883;28;49884;-68
2023/02/06 01:03:54;;;;;;;;;6.00;6.00;;;;;3.85;100.00;103969.44;4914017;28;49854;-67
2023/02/06 01:06:20;;;;;;;;;13.50;8.50;;;;;3.60;100.00;103928.03;4913723;28;50121;-67
2023/02/06 01:08:46;;;;;;;;;6.75;6.75;;;;;3.43;100.00;103897.78;4913659;28;49750;-67
2023/02/06 01:11:18;;;;;;;;;10.50;9.75;;;;;1.98;100.00;103680.78;4913649;28;49699;-67
2023/02/06 01:13:43;;;;;;;;;7.25;4.75;;;;;3.59;100.00;103927.91;4912885;28;49801;-67
2023/02/06 01:16:11;;;;;;;;;5.25;3.50;;;;;3.81;100.00;103973.41;4913291;28;50882;-68
2023/02/06 01:18:37;;;;;;;;;14.75;6.00;;;;;3.18;100.00;103870.13;4913689;28;50075;-67
2023/02/06 01:21:20;;;;;;;;;12.25;6.00;;;;;4.25;100.00;104048.03;4913669;28;50145;-67
2023/02/06 01:23:47;;;;;;;;;8.25;5.25;;;;;3.99;100.00;104000.31;4913620;28;49973;-67
2023/02/06 01:26:15;;;;;;;;;12.50;4.75;;;;;3.83;100.00;103964.09;4912159;28;52511;-67
2023/02/06 01:28:44;;;;;;;;;5.25;4.00;;;;;3.31;100.00;103890.47;4913193;28;49794;-67
2023/02/06 01:31:23;;;;;;;;;7.25;5.00;;;;;3.78;100.00;103972.22;4912713;28;49857;-75
2023/02/06 01:33:49;;;;;;;;;10.50;6.00;;;;;3.43;100.00;103910.78;4913119;28;49826;-67
2023/02/06 01:36:16;;;;;;;;;7.00;5.50;;;;;3.33;100.00;103874.25;4911754;28;52073;-67
2023/02/06 01:38:41;;;;;;;;;7.00;5.25;;;;;4.07;100.00;104019.28;4913294;28;49775;-67
2023/02/06 01:41:08;;;;;;;;;5.25;5.00;;;;;3.82;100.00;103993.44;4913269;28;49806;-66
2023/02/06 01:43:38;;;;;;;;;10.00;5.00;;;;;3.85;100.00;103975.53;4912263;28;49715;-67
2023/02/06 01:46:04;;;;;;;;;9.75;7.50;;;;;2.66;100.00;103755.00;4912840;28;50070;-67
2023/02/06 01:48:37;;;;;;;;;9.50;6.00;;;;;3.29;100.00;103877.34;4913095;28;49909;-68
2023/02/06 01:51:05;;;;;;;;;6.50;4.25;;;;;3.25;100.00;103882.03;4912973;28;50021;-67
2023/02/06 01:53:32;;;;;;;;;6.50;6.50;;;;;2.79;100.00;103836.81;4913276;28;50078;-67
2023/02/06 01:56:02;;;;;;;;;6.00;4.50;;;;;3.92;100.00;103998.78;4913001;28;50853;-67
2023/02/06 01:58:39;;;;;;;;;10.25;8.50;;;;;3.63;100.00;103945.59;4912854;28;49928;-67
2023/02/06 02:01:06;;;;;;;;;11.25;11.00;;;;;3.26;100.00;103891.66;4913207;28;49769;-68
2023/02/06 02:03:36;;;;;;;;;13.25;10.00;;;;;3.39;100.00;103897.34;4913192;28;49850;-67
2023/02/06 02:06:06;;;;;;;;;8.50;5.00;;;;;3.91;100.00;104009.03;4912875;28;49946;-67
2023/02/06 02:08:53;;;;;;;;;14.75;11.75;;;;;3.63;100.00;103950.81;4912315;28;49600;-67
2023/02/06 02:11:32;;;;;;;;;13.50;10.00;;;;;3.89;100.00;103997.56;4912977;28;49827;-66
2023/02/06 02:13:59;;;;;;;;;8.50;6.75;;;;;3.29;100.00;103895.50;4912768;28;49640;-66
2023/02/06 02:16:34;;;;;;;;;12.50;11.00;;;;;3.93;100.00;104021.41;4912299;28;49770;-67
2023/02/06 02:19:39;;;;;;;;;18.25;14.75;;;;;3.87;100.00;104015.63;4912727;28;49819;-67
2023/02/06 02:22:32;;;;;;;;;11.00;11.00;;;;;3.16;100.00;103887.22;4912510;28;50080;-67
2023/02/06 02:25:41;;;;;;;;;9.75;6.75;;;;;3.83;100.00;104010.88;4907437;28;50130;-65
2023/02/06 02:28:12;;;;;;;;;13.50;11.00;;;;;3.84;100.00;104004.91;4910651;28;50082;-68
2023/02/06 02:30:55;;;;;;;;;14.25;11.00;;;;;3.07;100.00;103870.72;4911915;28;49958;-67
2023/02/06 02:33:36;;;;;;;;;18.25;12.00;;;;;3.81;100.00;103990.69;4911315;28;50352;-67
2023/02/06 02:36:24;;;;;;;;;8.25;8.25;;;;;3.48;100.00;103954.50;4912528;28;49798;-66
2023/02/06 02:39:04;;;;;;;;;12.50;8.75;;;;;3.77;100.00;104001.56;4912672;28;50040;-66
2023/02/06 02:41:56;;;;;;;;;12.25;10.50;;;;;3.41;100.00;103929.56;4912617;28;49980;-66
2023/02/06 02:44:34;;;;;;;;;8.25;8.00;;;;;3.47;100.00;103934.44;4911872;28;49998;-67
2023/02/06 02:47:05;;;;;;;;;12.50;10.50;;;;;3.54;100.00;103952.47;4912687;28;50012;-67
2023/02/06 02:49:33;;;;;;;;;11.50;8.25;;;;;3.72;100.00;104004.59;4912301;28;50001;-67
2023/02/06 02:52:00;;;;;;;;;12.00;7.50;;;;;3.18;100.00;103893.50;4906253;28;49806;-68
2023/02/06 02:54:25;;;;;;;;;9.00;4.75;;;;;3.32;100.00;103926.97;4912536;28;49881;-67
2023/02/06 02:56:53;;;;;;;;;4.75;4.25;;;;;2.98;100.00;103865.53;4912697;28;49783;-67
2023/02/06 02:59:34;;;;;;;;;5.25;5.25;;;;;2.28;100.00;103733.91;4911654;28;51109;-67
2023/02/06 03:02:04;;;;;;;;;6.00;5.25;;;;;3.67;100.00;104023.09;4912077;28;49857;-67
2023/02/06 03:04:47;;;;;;;;;14.25;9.25;;;;;3.35;100.00;103922.06;4912323;28;50036;-67
2023/02/06 03:07:35;;;;;;;;;7.50;1.75;;;;;3.23;100.00;103904.34;4912601;28;49988;-67
2023/02/06 03:10:22;;;;;;;;;6.25;6.25;;;;;3.64;100.00;103973.41;4911985;28;50942;-67
2023/02/06 03:13:08;;;;;;;;;8.00;6.00;;;;;3.62;100.00;103985.34;4912396;28;49874;-67
2023/02/06 03:15:45;;;;;;;;;10.75;9.00;;;;;3.63;100.00;103974.19;4912011;28;50064;-68
2023/02/06 03:18:39;;;;;;;;;8.00;5.00;;;;;3.44;100.00;103942.84;4912191;28;49871;-67
2023/02/06 03:21:08;;;;;;;;;14.00;8.25;;;;;3.55;100.00;103969.91;4913740;28;50045;-67
2023/02/06 03:23:37;;;;;;;;;10.50;7.75;;;;;3.18;100.00;103898.69;4915199;28;49796;-67
2023/02/06 03:26:06;;;;;;;;;8.25;7.00;;;;;3.55;100.00;103960.41;4915592;28;49572;-67
2023/02/06 03:28:41;;;;;;;;;10.75;9.00;;;;;2.44;100.00;103751.94;4915143;28;49727;-66
2023/02/06 03:31:10;;;;;;;;;14.25;11.50;;;;;3.27;100.00;103933.34;4914896;28;50587;-67
2023/02/06 03:33:45;;;;;;;;;14.50;8.25;;;;;2.43;100.00;103776.06;4915157;28;49798;-67
2023/02/06 03:36:15;;;;;;;;;11.75;8.50;;;;;3.19;100.00;103877.19;4915336;28;49731;-67
2023/02/06 03:38:46;;;;;;;;;9.50;8.25;;;;;3.14;100.00;103878.38;4915389;28;49922;-67
2023/02/06 03:41:14;;;;;;;;;15.00;12.50;;;;;3.05;100.00;103869.66;4914789;28;49996;-66
2023/02/06 03:43:44;;;;;;;;;13.25;11.25;;;;;3.24;100.00;103906.19;4914570;28;49875;-67
2023/02/06 03:46:11;;;;;;;;;6.50;6.00;;;;;3.10;100.00;103884.97;4915085;28;49819;-67
2023/02/06 03:48:44;;;;;;;;;5.50;4.25;;;;;3.48;100.00;103949.28;4915331;28;49896;-67
2023/02/06 03:51:19;;;;;;;;;11.75;6.00;;;;;2.09;100.00;103772.59;4914901;28;50898;-67
2023/02/06 03:53:46;;;;;;;;;14.50;8.00;;;;;3.01;100.00;103894.41;4914801;28;49917;-67
2023/02/06 03:56:37;;;;;;;;;11.00;8.25;;;;;3.43;100.00;103954.91;4915023;28;49716;-67
2023/02/06 03:59:02;;;;;;;;;11.25;7.00;;;;;3.37;100.00;103950.78;4911651;28;49900;-67
2023/02/06 04:01:28;;;;;;;;;12.75;10.00;;;;;3.01;100.00;103875.31;4914676;28;49754;-67
2023/02/06 04:03:54;;;;;;;;;9.00;5.00;;;;;2.32;100.00;103740.31;4914476;28;49868;-67
2023/02/06 04:06:19;;;;;;;;;11.00;7.50;;;;;2.55;100.00;103787.66;4914872;28;49885;-69
2023/02/06 04:08:45;;;;;;;;;16.50;9.00;;;;;2.38;100.00;103778.16;4915178;28;50025;-67
2023/02/06 04:11:10;;;;;;;;;8.25;6.25;;;;;3.06;100.00;103887.97;4914573;28;50851;-67
2023/02/06 04:13:35;;;;;;;;;10.00;7.00;;;;;2.94;100.00;103872.88;4914272;28;49703;-66
2023/02/06 04:16:01;;;;;;;;;11.50;8.00;;;;;2.43;100.00;103776.97;4914731;28;50495;-68
2023/02/06 04:18:27;;;;;;;;;14.50;8.75;;;;;3.00;100.00;103887.38;4914657;28;49921;-65
2023/02/06 04:20:53;;;;;;;;;11.25;5.25;;;;;2.76;100.00;103835.59;4914375;28;50564;-67
2023/02/06 04:23:19;;;;;;;;;4.25;4.25;;;;;2.75;100.00;103847.66;4914632;28;49928;-68
2023/02/06 04:25:45;;;;;;;;;8.75;6.25;;;;;2.36;100.00;103751.16;4914459;28;49778;-67
2023/02/06 04:28:11;;;;;;;;;9.00;7.75;;;;;2.82;100.00;103824.16;4914244;28;50000;-67
2023/02/06 04:30:36;;;;;;;;;8.75;7.25;;;;;3.02;100.00;103885.84;4914151;28;49798;-68
2023/02/06 04:33:02;;;;;;;;;11.50;7.50;;;;;2.45;100.00;103761.56;4913106;28;49904;-67
2023/02/06 04:35:27;;;;;;;;;8.75;7.75;;;;;1.41;100.00;103619.69;4914222;28;49807;-67
2023/02/06 04:37:53;;;;;;;;;11.00;8.25;;;;;2.05;100.00;103739.34;4914663;28;49840;-67
2023/02/06 04:40:18;;;;;;;;;12.00;7.25;;;;;2.30;100.00;103737.56;4914129;28;50253;-67
2023/02/06 04:42:44;;;;;;;;;6.50;4.75;;;;;2.71;100.00;103842.94;4918898;28;49747;-67
2023/02/06 04:45:09;;;;;;;;;12.75;9.50;;;;;2.30;100.00;103742.75;4920012;28;50023;-67
2023/02/06 04:47:34;;;;;;;;;11.25;8.75;;;;;2.74;100.00;103813.78;4917904;28;50002;-67
2023/02/06 04:50:00;;;;;;;;;6.50;6.50;;;;;2.90;100.00;103860.34;4925768;28;49705;-67
2023/02/06 04:52:25;;;;;;;;;10.50;9.00;;;;;2.67;100.00;103803.53;4921078;28;49644;-68
2023/02/06 04:54:50;;;;;;;;;12.00;8.25;;;;;2.99;100.00;103871.63;4919279;28;49771;-67
2023/02/06 04:57:16;;;;;;;;;16.00;8.25;;;;;1.80;100.00;103673.75;4919025;28;49844;-66
2023/02/06 04:59:41;;;;;;;;;18.50;8.25;;;;;1.38;100.00;103655.63;4918177;28;52216;-67
2023/02/06 05:02:07;;;;;;;;;15.25;6.75;;;;;3.00;100.00;103882.19;4912951;28;49950;-67
2023/02/06 05:04:32;;;;;;;;;12.25;10.00;;;;;2.96;100.00;103874.84;4916629;28;50187;-67
2023/02/06 05:06:57;;;;;;;;;9.75;9.75;;;;;3.16;100.00;103929.69;4918618;28;49772;-67
2023/02/06 05:09:23;;;;;;;;;12.00;10.50;;;;;2.60;100.00;103812.34;4914402;28;50912;-66
2023/02/06 05:11:48;;;;;;;;;10.50;7.00;;;;;1.75;100.00;103671.47;4920089;28;49869;-67
2023/02/06 05:14:13;;;;;;;;;13.25;9.75;;;;;2.47;100.00;103802.44;4917319;28;49665;-67
2023/02/06 05:16:39;;;;;;;;;11.50;7.25;;;;;2.51;100.00;103802.00;4917415;28;49651;-67
2023/02/06 05:19:04;;;;;;;;;9.75;7.50;;;;;2.98;100.00;103886.28;4921316;28;49900;-67
2023/02/06 05:21:29;;;;;;;;;13.25;9.25;;;;;2.98;100.00;103883.69;4916527;28;49827;-67
2023/02/06 05:23:55;;;;;;;;;8.25;7.50;;;;;1.34;100.00;103598.19;4918717;28;49706;-67
2023/02/06 05:26:20;;;;;;;;;14.50;10.25;;;;;2.70;100.00;103835.91;4916478;28;50064;-67
2023/02/06 05:28:46;;;;;;;;;13.75;9.50;;;;;1.93;100.00;103702.75;4917737;28;49836;-67
2023/02/06 05:31:18;;;;;;;;;7.75;7.50;;;;;2.69;100.00;103838.31;4915727;28;49707;-67
2023/02/06 05:33:47;;;;;;;;;14.00;8.25;;;;;2.60;100.00;103804.56;4911982;28;49820;-67
2023/02/06 05:36:12;;;;;;;;;5.00;4.25;;;;;2.44;100.00;103840.09;4913696;28;49621;-67
2023/02/06 05:38:40;;;;;;;;;8.25;8.25;;;;;2.68;100.00;103834.81;4919784;28;50790;-72
2023/02/06 05:41:06;;;;;;;;;10.25;6.50;;;;;2.74;100.00;103853.59;4911046;28;49855;-63
2023/02/06 05:43:32;;;;;;;;;13.00;7.75;;;;;2.66;100.00;103856.16;4911756;28;49813;-65
2023/02/06 05:45:58;;;;;;;;;10.25;9.25;;;;;2.32;100.00;103800.88;4912876;28;49906;-75
2023/02/06 05:48:23;;;;;;;;;8.50;8.00;;;;;2.88;100.00;103888.72;4912171;28;51961;-69
2023/02/06 05:50:49;;;;;;;;;15.00;5.75;;;;;2.92;100.00;103885.69;4913309;28;49799;-74
2023/02/06 05:53:16;;;;;;;;;10.75;5.50;;;;;2.22;100.00;103779.94;4913098;28;49775;-72
2023/02/06 05:55:41;;;;;;;;;13.00;8.00;;;;;2.82;100.00;103907.19;4915116;28;50010;-73
2023/02/06 05:58:07;;;;;;;;;11.25;7.50;;;;;1.57;100.00;103657.53;4913482;28;50379;-65
2023/02/06 06:00:32;;;;;;;;;11.00;9.00;;;;;1.57;100.00;103689.50;4912896;28;49786;-70
2023/02/06 06:02:57;;;;;;;;;9.00;7.00;;;;;2.88;100.00;103893.91;4914880;28;50004;-68
2023/02/06 06:05:23;;;;;;;;;10.25;10.25;;;;;2.34;100.00;103830.47;4915104;28;49867;-69
2023/02/06 06:07:48;;;;;;;;;7.25;5.50;;;;;1.80;100.00;103753.13;4912801;28;49699;-67
2023/02/06 06:10:15;;;;;;;;;12.00;8.50;;;;;2.92;100.00;103927.22;4918248;28;49832;-76
2023/02/06 06:12:40;;;;;;;;;12.00;7.25;;;;;2.84;100.00;103917.72;4916756;28;49994;-68
2023/02/06 06:15:06;;;;;;;;;10.00;8.00;;;;;2.12;100.00;103824.72;4925565;28;49680;-70
2023/02/06 06:17:31;;;;;;;;;14.75;11.00;;;;;1.48;100.00;103719.63;4918736;28;50173;-74
2023/02/06 06:19:57;;;;;;;;;17.00;9.75;;;;;1.30;100.00;103709.94;4912581;28;49987;-70
2023/02/06 06:22:22;;;;;;;;;11.00;7.00;;;;;1.40;100.00;103733.44;4914280;28;49807;-75
2023/02/06 06:24:47;;;;;;;;;8.50;8.50;;;;;1.67;100.00;103725.03;4923642;28;49902;-76
2023/02/06 06:27:13;;;;;;;;;14.00;7.25;;;;;2.43;100.00;103879.75;4913754;28;49727;-75
2023/02/06 06:29:42;;;;;;;;;14.25;7.25;;;;;2.85;100.00;103958.47;4908642;28;49943;-71
2023/02/06 06:32:07;;;;;;;;;12.25;8.50;;;;;1.34;100.00;103689.69;4911568;28;49585;-76
2023/02/06 06:34:33;;;;;;;;;15.75;12.75;;;;;1.50;100.00;103750.84;4911978;28;49656;-74
2023/02/06 06:36:58;;;;;;;;;10.50;7.00;;;;;1.60;100.00;103722.56;4911213;28;50168;-68
2023/02/06 06:39:23;;;;;;;;;5.50;4.50;;;;;2.37;100.00;103859.28;4911962;28;49909;-67
2023/02/06 06:41:49;;;;;;;;;8.00;5.25;;;;;2.82;100.00;103958.16;4912437;28;50311;-72
2023/02/06 06:44:14;;;;;;;;;12.00;8.00;;;;;2.23;100.00;103836.22;4912448;28;49846;-69
2023/02/06 06:46:40;;;;;;;;;6.00;6.00;;;;;2.81;100.00;103940.78;4912286;28;51040;-68
2023/02/06 06:49:05;;;;;;;;;11.25;7.50;;;;;1.68;100.00;103740.72;4912850;28;49858;-68
2023/02/06 06:51:30;;;;;;;;;14.75;8.25;;;;;2.78;100.00;103945.63;4910970;28;50283;-68
2023/02/06 06:53:56;;;;;;;;;9.25;7.75;;;;;2.83;100.00;103962.59;4913395;28;49950;-66
2023/02/06 06:56:22;;;;;;;;;10.25;8.50;;;;;2.17;100.00;103835.59;4919533;28;49948;-68
2023/02/06 06:58:49;;;;;;;;;9.25;7.50;;;;;2.16;100.00;103825.97;4915903;28;50200;-66
2023/02/06 07:01:14;;;;;;;;;14.50;10.50;;;;;2.72;100.00;103937.22;4918982;28;49975;-63
2023/02/06 07:03:43;;;;;;;;;11.00;10.00;;;;;1.76;100.00;103761.34;4915433;28;49703;-63
2023/02/06 07:06:10;;;;;;;;;9.00;9.00;;;;;2.42;100.00;103883.13;4914745;28;49993;-66
2023/02/06 07:08:40;;;;;;;;;5.25;4.25;;;;;1.80;100.00;103772.16;4864912;28;50966;-66
2023/02/06 07:11:09;;;;;;;;;13.00;8.75;;;;;1.27;100.00;103687.25;4897968;28;50768;-66
2023/02/06 07:13:35;;;;;;;;;13.00;7.75;;;;;2.59;100.00;103954.09;4901262;28;50234;-66
2023/02/06 07:16:01;;;;;;;;;14.50;10.00;;;;;2.54;100.00;103936.25;4902628;28;50040;-68
2023/02/06 07:18:26;;;;;;;;;13.75;10.75;;;;;2.09;100.00;103827.00;4908095;28;49788;-66
2023/02/06 07:20:51;;;;;;;;;11.00;8.75;;;;;2.19;100.00;103840.16;4905783;28;49775;-67
2023/02/06 07:23:17;;;;;;;;;4.50;3.50;;;;;1.65;100.00;103750.78;4905683;28;50026;-66
2023/02/06 07:25:42;;;;;;;;;15.75;7.75;;;;;2.25;100.00;103845.06;4904866;28;50191;-67
2023/02/06 07:28:08;;;;;;;;;15.75;10.25;;;;;2.01;100.00;103833.06;4912013;28;49848;-66
2023/02/06 07:30:34;;;;;;;;;11.00;10.25;;;;;2.15;100.00;103834.50;4913662;28;49855;-67
2023/02/06 07:32:59;;;;;;;;;9.50;7.75;;;;;1.24;100.00;103710.19;4915122;28;50050;-66
2023/02/06 07:35:25;;;;;;;;;24.75;14.25;;;;;1.57;100.00;103735.19;4914615;28;50727;-66
2023/02/06 07:37:53;;;;;;;;;12.50;9.00;;;;;2.16;100.00;103845.03;4917277;28;50616;-68
2023/02/06 07:40:19;;;;;;;;;8.25;7.25;;;;;2.75;100.00;103946.22;4914843;28;49637;-62
2023/02/06 07:42:44;;;;;;;;;10.50;6.50;;;;;2.23;100.00;103844.00;4922910;28;49851;-62
2023/02/06 07:45:09;;;;;;;;;10.75;10.75;;;;;2.67;100.00;103904.69;4915365;28;50794;-64
2023/02/06 07:47:35;;;;;;;;;10.50;8.00;;;;;2.53;100.00;103861.78;4914810;28;49786;-64
2023/02/06 07:50:00;;;;;;;;;10.75;9.75;;;;;2.77;100.00;103897.09;4915437;28;50427;-64
2023/02/06 07:52:26;;;;;;;;;16.00;13.50;;;;;2.05;100.00;103754.91;4925492;28;49623;-63
2023/02/06 07:54:51;;;;;;;;;13.25;10.50;;;;;2.58;100.00;103845.94;4912780;28;50412;-63
2023/02/06 07:57:17;;;;;;;;;14.50;12.75;;;;;2.46;100.00;103817.84;4912815;28;49678;-62
2023/02/06 07:59:42;;;;;;;;;8.75;6.50;;;;;2.87;100.00;103869.63;4913165;28;49639;-64
2023/02/06 08:02:11;;;;;;;;;7.75;5.00;;;;;3.01;100.00;103885.72;4914651;28;49928;-67
2023/02/06 08:04:36;;;;;;;;;13.75;13.25;;;;;3.33;100.00;103922.69;4914249;28;50787;-63
2023/02/06 08:07:03;;;;;;;;;8.00;7.75;;;;;3.25;100.00;103898.53;4913642;28;49751;-63
2023/02/06 08:09:30;;;;;;;;;9.75;8.00;;;;;2.84;100.00;103816.53;4913039;28;50025;-63
2023/02/06 08:11:55;;;;;;;;;13.75;12.25;;;;;3.07;100.00;103863.88;4912806;28;49659;-62
2023/02/06 08:14:21;;;;;;;;;9.25;6.75;;;;;3.06;100.00;103845.53;4912681;28;49743;-62
2023/02/06 08:16:48;;;;;;;;;11.75;8.25;;;;;3.00;100.00;103806.94;4913355;28;49715;-64
2023/02/06 08:19:13;;;;;;;;;10.50;9.00;;;;;2.82;100.00;103781.75;4913487;28;49792;-63
2023/02/06 08:21:39;;;;;;;;;10.25;8.50;;;;;3.26;100.00;103843.25;4913647;28;49791;-66
2023/02/06 08:24:04;;;;;;;;;8.50;8.25;;;;;2.87;100.00;103775.31;4913067;28;50768;-67
2023/02/06 08:26:30;;;;;;;;;19.50;12.00;;;;;3.79;100.00;103943.78;4912935;28;49727;-63
2023/02/06 08:28:59;;;;;;;;;19.00;11.00;;;;;2.90;100.00;103762.66;4913241;28;49907;-63
2023/02/06 08:31:27;;;;;;;;;10.50;7.25;;;;;3.84;100.00;103928.63;4913770;28;49604;-64
2023/02/06 08:33:54;;;;;;;;;15.75;9.00;;;;;3.81;100.00;103917.94;4913407;28;50607;-64
2023/02/06 08:36:21;;;;;;;;;14.75;11.50;;;;;3.49;100.00;103836.84;4913418;28;49922;-63
2023/02/06 08:38:47;;;;;;;;;11.25;9.75;;;;;3.67;100.00;103860.34;4913590;28;49812;-63
2023/02/06 08:41:21;;;;;;;;;14.00;11.75;;;;;3.83;100.00;103867.00;4913655;28;49716;-63
2023/02/06 08:43:49;;;;;;;;;16.25;14.25;;;;;3.58;100.00;103794.50;4912748;28;49882;-64
2023/02/06 08:46:16;;;;;;;;;12.75;10.50;;;;;3.84;100.00;103825.56;4913122;28;49818;-62
2023/02/06 08:48:42;;;;;;;;;17.00;11.00;;;;;3.73;100.00;103795.97;4911837;28;49883;-64
2023/02/06 08:51:09;;;;;;;;;11.25;6.50;;;;;4.25;100.00;103875.47;4913034;28;49992;-63
2023/02/06 08:53:35;;;;;;;;;13.00;8.00;;;;;4.31;100.00;103882.16;4912712;28;49939;-64
2023/02/06 08:56:03;;;;;;;;;14.00;13.50;;;;;4.15;100.00;103831.13;4913204;28;50831;-63
2023/02/06 08:58:29;;;;;;;;;17.25;12.00;;;;;4.33;100.00;103869.28;4912793;28;50078;-64
2023/02/06 09:00:55;;;;;;;;;12.50;12.00;;;;;4.22;100.00;103828.34;4913398;28;49744;-63
2023/02/06 09:03:21;;;;;;;;;17.25;14.00;;;;;4.49;100.00;103854.38;4912527;28;50814;-64
2023/02/06 09:05:50;;;;;;;;;12.50;12.00;;;;;2.80;100.00;103566.25;4910081;28;49861;-63
2023/02/06 09:08:15;;;;;;;;;11.25;9.75;;;;;3.88;100.00;103730.66;4912239;28;50064;-63
2023/02/06 09:10:41;;;;;;;;;11.50;7.75;;;;;4.20;100.00;103780.47;4912741;28;50360;-64
2023/02/06 09:13:06;;;;;;;;;17.50;12.00;;;;;4.81;100.00;103901.63;4912097;28;50611;-63
2023/02/06 09:15:32;;;;;;;;;12.00;10.25;;;;;4.80;100.00;103865.97;4912148;28;49812;-64
2023/02/06 09:17:57;;;;;;;;;21.75;16.00;;;;;4.75;100.00;103862.03;4910639;28;49785;-63
2023/02/06 09:20:25;;;;;;;;;14.50;12.50;;;;;4.79;100.00;103894.47;4911797;28;49672;-64
2023/02/06 09:22:51;;;;;;;;;15.00;11.50;;;;;4.77;100.00;103878.72;4910443;28;51268;-63
2023/02/06 09:25:17;;;;;;;;;9.50;9.50;;;;;4.26;100.00;103839.19;4910175;28;49869;-66
2023/02/06 09:27:45;;;;;;;;;19.75;12.00;;;;;4.42;100.00;103812.94;4909557;28;49860;-64
2023/02/06 09:30:12;;;;;;;;;12.00;8.75;;;;;2.89;100.00;103563.59;4910930;28;50222;-65
2023/02/06 09:32:38;;;;;;;;;11.00;9.50;;;;;4.66;100.00;103826.44;4910822;28;52302;-65
2023/02/06 09:35:04;;;;;;;;;10.25;9.25;;;;;5.00;100.00;103857.41;4911636;28;49683;-63
2023/02/06 09:37:29;;;;;;;;;19.50;13.00;;;;;5.20;100.00;103858.34;4914999;28;50104;-63
2023/02/06 09:39:55;;;;;;;;;16.00;10.50;;;;;4.90;100.00;103833.91;4912603;28;49783;-63
2023/02/06 09:42:32;;;;;;;;;20.75;15.00;;;;;4.83;100.00;103803.81;4922750;28;49773;-64
2023/02/06 09:45:12;;;;;;;;;13.75;11.25;;;;;4.81;100.00;103820.94;4922460;28;49862;-64
2023/02/06 09:47:44;;;;;;;;;11.75;8.75;;;;;4.67;100.00;103797.03;4926650;28;49611;-65
2023/02/06 09:50:26;;;;;;;;;19.75;10.25;;;;;5.05;100.00;103830.13;4928464;28;49495;-64
2023/02/06 09:53:12;;;;;;;;;12.00;10.75;;;;;5.28;100.00;103871.28;4922296;28;50516;-63
2023/02/06 09:55:42;;;;;;;;;16.75;13.00;;;;;5.04;100.00;103820.47;4912595;28;50299;-65
2023/02/06 09:59:21;;;;;;;;;14.50;12.00;;;;;5.43;100.00;103866.56;4921963;28;49828;-64
2023/02/06 10:02:21;;;;;;;;;27.00;18.25;;;;;5.71;100.00;103878.72;4866735;29;49383;-66
2023/02/06 10:05:00;;;;;;;;;11.75;11.25;;;;;5.81;100.00;103887.38;4870417;29;50081;-67
2023/02/06 10:07:37;;;;;;;;;15.25;13.75;;;;;5.68;100.00;103886.25;4906653;28;50279;-64
2023/02/06 10:10:21;;;;;;;;;23.50;15.25;;;;;3.79;100.00;103589.47;4915567;28;49822;-63
2023/02/06 10:12:59;;;;;;;;;10.75;10.25;;;;;5.34;100.00;103818.84;4922104;28;49471;-75
2023/02/06 10:15:32;;;;;;;;;15.25;11.25;;;;;5.77;100.00;103885.25;4923496;28;50366;-64
2023/02/06 10:18:13;;;;;;;;;12.25;11.00;;;;;5.85;100.00;103890.38;4911659;28;49755;-69
2023/02/06 10:21:07;;;;;;;;;13.75;11.50;;;;;5.08;100.00;103734.03;4903379;28;50087;-64
2023/02/06 10:24:06;;;;;;;;;17.00;14.00;;;;;5.96;100.00;103886.16;4906751;28;49995;-63
2023/02/06 10:26:36;;;;;;;;;12.50;11.00;;;;;5.09;100.00;103721.94;4887760;28;49923;-66
2023/02/06 10:29:03;;;;;;;;;14.25;10.00;;;;;6.05;100.00;103913.06;4905717;28;49878;-64
2023/02/06 10:32:04;;;;;;;;;22.75;16.00;;;;;6.03;100.00;103885.94;4911724;28;49980;-72
2023/02/06 10:34:59;;;;;;;;;13.25;10.25;;;;;5.98;100.00;103868.94;4900842;28;50189;-64
2023/02/06 10:37:38;;;;;;;;;23.50;17.25;;;;;6.15;100.00;103880.88;4908980;28;50035;-64
2023/02/06 10:40:30;;;;;;;;;16.50;15.00;;;;;5.49;100.00;103767.19;4904597;28;49860;-65
2023/02/06 10:43:00;;;;;;;;;21.00;14.75;;;;;5.73;100.00;103827.63;4908613;28;49972;-64
2023/02/06 10:45:57;;;;;;;;;17.00;11.50;;;;;5.71;100.00;103816.16;4907560;28;49811;-64
2023/02/06 10:48:31;;;;;;;;;20.50;17.50;;;;;6.10;100.00;103861.31;4905394;28;50974;-64
2023/02/06 10:51:16;;;;;;;;;23.75;18.25;;;;;6.16;100.00;103867.03;4907328;28;49850;-65
2023/02/06 10:53:50;;;;;;;;;13.00;10.75;;;;;5.85;100.00;103809.56;4908243;28;49993;-63
2023/02/06 10:56:23;;;;;;;;;14.75;12.25;;;;;5.98;100.00;103835.03;4911270;28;49983;-65
2023/02/06 10:58:57;;;;;;;;;14.25;12.75;;;;;5.40;100.00;103683.91;4908312;28;49850;-63
2023/02/06 11:01:25;;;;;;;;;13.00;13.00;;;;;6.22;100.00;103805.00;4919774;28;49863;-66
2023/02/06 11:04:09;;;;;;;;;11.00;10.25;;;;;6.56;100.00;103845.34;4926089;28;49423;-63
2023/02/06 11:06:39;;;;;;;;;16.25;13.00;;;;;6.12;100.00;103760.63;4927196;28;49473;-62
2023/02/06 11:09:05;;;;;;;;;19.75;13.75;;;;;6.05;100.00;103763.47;4924146;28;50215;-71
2023/02/06 11:11:37;;;;;;;;;14.25;13.00;;;;;6.68;100.00;103828.13;4924353;28;49471;-65
2023/02/06 11:14:17;;;;;;;;;13.75;13.75;;;;;7.03;100.00;103851.09;4925849;28;50463;-63
2023/02/06 11:16:43;;;;;;;;;12.75;11.00;;;;;5.32;100.00;103526.06;4928910;28;49791;-73
2023/02/06 11:19:40;;;;;;;;;13.50;8.75;;;;;7.11;100.00;103782.09;4919395;28;50735;-63
2023/02/06 11:22:06;;;;;;;;;10.25;10.25;;;;;7.28;100.00;103801.81;4916314;28;50366;-64
2023/02/06 11:24:32;;;;;;;;;13.00;12.00;;;;;7.29;100.00;103793.16;4906378;28;49655;-65
2023/02/06 11:27:11;;;;;;;;;11.00;9.75;;;;;7.50;100.00;103852.44;4905955;28;50077;-64
2023/02/06 11:29:44;;;;;;;;;15.50;12.75;;;;;7.14;100.00;103765.00;4906213;28;50675;-69